createdAt,value
2022-12-15T00:00:11.600Z,56.91
2022-12-15T00:02:57.305Z,57.33
2022-12-15T00:05:45.047Z,56.86
2022-12-15T00:08:36.477Z,57.19
2022-12-15T00:11:23.115Z,57.46
2022-12-15T00:14:09.348Z,57.15
2022-12-15T00:16:55.041Z,57.23
2022-12-15T00:19:40.579Z,57.38
2022-12-15T00:22:27.556Z,57.36
2022-12-15T00:25:13.248Z,57.36
2022-12-15T00:27:58.804Z,57.31
2022-12-15T00:30:44.676Z,57.21
2022-12-15T00:33:35.575Z,57.22
2022-12-15T00:36:21.815Z,57.42
2022-12-15T00:38:52.334Z,57.35
2022-12-15T00:41:21.056Z,57.19
2022-12-15T00:43:50.036Z,57.41
2022-12-15T00:46:35.774Z,57.21
2022-12-15T00:49:04.613Z,56.97
2022-12-15T00:51:50.233Z,57.12
2022-12-15T00:54:37.722Z,57.34
2022-12-15T00:57:23.186Z,57.63
2022-12-15T01:00:08.595Z,57.54
2022-12-15T01:02:54.318Z,57.21
2022-12-15T01:05:41.903Z,57.46
2022-12-15T01:08:27.400Z,57.29
2022-12-15T01:11:14.155Z,57.13
2022-12-15T01:13:59.648Z,57.16
2022-12-15T01:16:45.203Z,57.42
2022-12-15T01:19:31.224Z,57.23
2022-12-15T01:21:59.617Z,56.79
2022-12-15T01:24:28.037Z,57.09
2022-12-15T01:26:57.998Z,56.97
2022-12-15T01:29:27.116Z,56.97
2022-12-15T01:31:55.547Z,56.81
2022-12-15T01:34:24.166Z,57.15
2022-12-15T01:36:52.553Z,57.07
2022-12-15T01:39:21.049Z,56.94
2022-12-15T01:41:48.382Z,57.17
2022-12-15T01:44:23.367Z,57.11
2022-12-15T01:46:56.397Z,57.25
2022-12-15T01:49:30.724Z,57.12
2022-12-15T01:52:01.854Z,57.40
2022-12-15T01:54:36.299Z,57.31
2022-12-15T01:57:07.926Z,57.51
2022-12-15T01:59:43.580Z,57.16
2022-12-15T02:02:14.118Z,57.05
2022-12-15T02:04:43.391Z,57.29
2022-12-15T02:07:15.019Z,57.36
2022-12-15T02:09:44.377Z,57.16
2022-12-15T02:12:25.156Z,56.97
2022-12-15T02:15:08.552Z,57.02
2022-12-15T02:17:43.661Z,57.10
2022-12-15T02:20:45.874Z,56.67
2022-12-15T02:23:55.971Z,56.82
2022-12-15T02:26:56.136Z,56.80
2022-12-15T02:29:42.132Z,57.08
2022-12-15T02:32:14.740Z,57.12
2022-12-15T02:34:47.783Z,57.15
2022-12-15T02:37:23.039Z,57.40
2022-12-15T02:39:51.698Z,57.40
2022-12-15T02:42:20.846Z,57.11
2022-12-15T02:44:53.974Z,57.04
2022-12-15T02:47:34.121Z,57.15
2022-12-15T02:50:18.155Z,57.06
2022-12-15T02:52:57.615Z,57.00
2022-12-15T02:55:36.144Z,57.04
2022-12-15T02:58:13.650Z,57.24
2022-12-15T03:00:48.202Z,56.87
2022-12-15T03:03:22.190Z,56.84
2022-12-15T03:05:53.442Z,56.93
2022-12-15T03:08:22.568Z,57.34
2022-12-15T03:10:52.540Z,57.27
2022-12-15T03:13:21.131Z,57.13
2022-12-15T03:15:49.462Z,57.04
2022-12-15T03:18:19.440Z,56.87
2022-12-15T03:20:47.954Z,57.00
2022-12-15T03:23:16.350Z,57.03
2022-12-15T03:25:46.557Z,57.02
2022-12-15T03:28:18.550Z,57.04
2022-12-15T03:30:50.496Z,57.18
2022-12-15T03:33:20.704Z,57.26
2022-12-15T03:35:49.953Z,57.36
2022-12-15T03:38:18.828Z,56.82
2022-12-15T03:40:47.375Z,56.69
2022-12-15T03:43:15.653Z,56.68
2022-12-15T03:45:44.348Z,56.86
2022-12-15T03:48:12.822Z,56.98
2022-12-15T03:50:42.669Z,56.74
2022-12-15T03:53:11.051Z,56.74
2022-12-15T03:55:39.532Z,56.69
2022-12-15T03:58:08.173Z,56.71
2022-12-15T04:00:36.628Z,56.87
2022-12-15T04:03:05.431Z,56.72
2022-12-15T04:05:36.383Z,57.22
2022-12-15T04:08:07.199Z,57.08
2022-12-15T04:10:37.451Z,57.08
2022-12-15T04:13:07.856Z,57.05
2022-12-15T04:15:37.794Z,57.22
2022-12-15T04:18:08.086Z,57.64
2022-12-15T04:20:36.682Z,57.68
2022-12-15T04:23:08.048Z,57.71
2022-12-15T04:25:54.592Z,58.19
2022-12-15T04:28:40.851Z,57.89
2022-12-15T04:31:28.338Z,57.99
2022-12-15T04:34:16.957Z,57.88
2022-12-15T04:37:05.394Z,57.96
2022-12-15T04:39:53.625Z,58.26
2022-12-15T04:42:39.520Z,58.16
2022-12-15T04:45:26.843Z,58.28
2022-12-15T04:48:12.550Z,58.40
2022-12-15T04:50:57.798Z,58.22
2022-12-15T04:53:43.872Z,58.04
2022-12-15T04:56:31.964Z,57.92
2022-12-15T04:59:17.988Z,57.83
2022-12-15T05:02:04.449Z,57.76
2022-12-15T05:04:50.473Z,57.90
2022-12-15T05:07:36.224Z,57.89
2022-12-15T05:10:22.978Z,57.91
2022-12-15T05:13:10.123Z,57.97
2022-12-15T05:15:55.877Z,58.07
2022-12-15T05:18:41.899Z,58.07
2022-12-15T05:21:27.288Z,57.95
2022-12-15T05:24:13.111Z,58.10
2022-12-15T05:26:58.612Z,58.21
2022-12-15T05:29:45.642Z,58.43
2022-12-15T05:32:14.258Z,58.45
2022-12-15T05:34:42.763Z,58.45
2022-12-15T05:37:11.127Z,58.33
2022-12-15T05:39:39.442Z,58.21
2022-12-15T05:42:08.131Z,58.26
2022-12-15T05:44:37.966Z,58.27
2022-12-15T05:47:06.549Z,58.39
2022-12-15T05:49:35.817Z,57.81
2022-12-15T05:52:04.485Z,58.12
2022-12-15T05:54:32.882Z,58.19
2022-12-15T05:57:01.246Z,58.17
2022-12-15T05:59:29.780Z,58.40
2022-12-15T06:01:59.818Z,57.98
2022-12-15T06:04:28.243Z,58.13
2022-12-15T06:06:58.587Z,58.23
2022-12-15T06:09:26.947Z,58.24
2022-12-15T06:11:55.277Z,58.06
2022-12-15T06:14:23.646Z,57.88
2022-12-15T06:16:52.110Z,58.25
2022-12-15T06:19:22.283Z,58.32
2022-12-15T06:21:50.694Z,58.24
2022-12-15T06:24:19.225Z,57.97
2022-12-15T06:26:49.829Z,57.57
2022-12-15T06:29:18.526Z,57.96
2022-12-15T06:31:47.146Z,57.96
2022-12-15T06:34:17.896Z,57.79
2022-12-15T06:36:47.761Z,57.96
2022-12-15T06:39:17.740Z,58.23
2022-12-15T06:41:46.292Z,57.63
2022-12-15T06:44:16.282Z,57.76
2022-12-15T06:46:46.321Z,57.66
2022-12-15T06:49:15.900Z,57.79
2022-12-15T06:51:45.219Z,57.80
2022-12-15T06:54:15.647Z,57.96
2022-12-15T06:56:44.068Z,57.78
2022-12-15T06:59:13.507Z,57.34
2022-12-15T07:01:43.152Z,57.50
2022-12-15T07:04:12.429Z,57.75
2022-12-15T07:06:42.516Z,57.26
2022-12-15T07:09:17.740Z,57.45
2022-12-15T07:11:49.394Z,57.35
2022-12-15T07:14:17.856Z,57.75
2022-12-15T07:16:46.490Z,57.31
2022-12-15T07:19:15.208Z,57.37
2022-12-15T07:21:44.560Z,57.38
2022-12-15T07:24:13.978Z,57.61
2022-12-15T07:26:44.950Z,57.04
2022-12-15T07:29:16.891Z,57.45
2022-12-15T07:31:48.097Z,57.14
2022-12-15T07:34:16.765Z,57.22
2022-12-15T07:36:51.597Z,57.03
2022-12-15T07:39:20.584Z,57.32
2022-12-15T07:41:50.685Z,57.38
2022-12-15T07:44:19.427Z,57.03
2022-12-15T07:46:49.475Z,57.26
2022-12-15T07:49:18.396Z,57.11
2022-12-15T07:51:46.959Z,57.41
2022-12-15T07:54:15.913Z,57.54
2022-12-15T07:56:44.467Z,57.34
2022-12-15T07:59:21.199Z,57.21
2022-12-15T08:01:50.875Z,57.14
2022-12-15T08:04:19.987Z,57.43
2022-12-15T08:06:48.349Z,57.51
2022-12-15T08:09:16.912Z,57.38
2022-12-15T08:11:45.245Z,57.49
2022-12-15T08:14:17.638Z,57.44
2022-12-15T08:16:48.372Z,57.48
2022-12-15T08:19:18.144Z,57.63
2022-12-15T08:21:47.647Z,57.88
2022-12-15T08:24:17.460Z,57.76
2022-12-15T08:26:50.191Z,57.63
2022-12-15T08:32:09.275Z,57.65
2022-12-15T08:34:37.936Z,57.85
2022-12-15T08:37:06.412Z,57.67
2022-12-15T08:39:34.745Z,57.64
2022-12-15T08:42:03.308Z,57.80
2022-12-15T08:44:31.694Z,57.87
2022-12-15T08:46:59.977Z,57.96
2022-12-15T08:49:29.801Z,57.53
2022-12-15T08:51:58.316Z,57.76
2022-12-15T08:54:26.620Z,58.04
2022-12-15T08:56:55.402Z,57.89
2022-12-15T08:59:24.007Z,58.07
2022-12-15T09:01:52.622Z,58.04
2022-12-15T09:04:21.178Z,57.67
2022-12-15T09:06:51.592Z,57.88
2022-12-15T09:09:20.546Z,57.98
2022-12-15T09:11:49.249Z,58.12
2022-12-15T09:14:19.708Z,57.78
2022-12-15T09:16:51.400Z,58.13
2022-12-15T09:19:20.518Z,57.95
2022-12-15T09:21:50.382Z,57.72
2022-12-15T09:24:28.904Z,58.04
2022-12-15T09:27:03.458Z,57.84
2022-12-15T09:29:32.333Z,57.78
2022-12-15T09:32:01.198Z,57.92
2022-12-15T09:34:29.629Z,57.68
2022-12-15T09:36:59.429Z,58.00
2022-12-15T09:39:27.960Z,57.84
2022-12-15T09:41:59.940Z,58.04
2022-12-15T09:44:31.628Z,57.71
2022-12-15T09:47:08.418Z,57.86
2022-12-15T09:49:51.714Z,58.32
2022-12-15T09:52:25.195Z,57.70
2022-12-15T09:54:54.167Z,58.10
2022-12-15T09:57:33.205Z,57.71
2022-12-15T10:00:16.043Z,57.90
2022-12-15T10:03:09.639Z,58.06
2022-12-15T10:06:14.513Z,57.98
2022-12-15T10:08:41.345Z,57.42
2022-12-15T10:11:21.438Z,57.70
2022-12-15T10:13:55.916Z,57.67
2022-12-15T10:16:30.340Z,57.57
2022-12-15T10:19:07.353Z,57.73
2022-12-15T10:21:36.609Z,57.30
2022-12-15T10:24:31.538Z,56.79
2022-12-15T10:27:21.497Z,57.05
2022-12-15T10:29:55.434Z,56.60
2022-12-15T10:32:31.753Z,56.92
2022-12-15T10:35:00.250Z,56.71
2022-12-15T10:37:28.669Z,56.59
2022-12-15T10:39:58.696Z,56.63
2022-12-15T10:42:28.757Z,56.22
2022-12-15T10:44:58.790Z,55.72
2022-12-15T10:47:29.098Z,54.70
2022-12-15T10:50:24.058Z,54.77
2022-12-15T10:52:53.287Z,54.41
2022-12-15T10:55:38.609Z,54.76
2022-12-15T10:58:16.962Z,54.05
2022-12-15T11:00:46.632Z,54.89
2022-12-15T11:03:25.744Z,54.50
2022-12-15T11:05:55.472Z,54.72
2022-12-15T11:08:25.777Z,54.96
2022-12-15T11:11:15.713Z,54.47
2022-12-15T11:13:44.691Z,54.75
2022-12-15T11:16:17.854Z,54.91
2022-12-15T11:18:51.391Z,54.67
2022-12-15T11:21:23.899Z,54.14
2022-12-15T11:23:59.358Z,54.10
2022-12-15T11:26:42.014Z,53.88
2022-12-15T11:29:22.532Z,53.62
2022-12-15T11:31:52.596Z,53.95
2022-12-15T11:34:24.252Z,54.29
2022-12-15T11:37:03.951Z,53.83
2022-12-15T11:39:46.187Z,54.01
2022-12-15T11:42:30.358Z,54.08
2022-12-15T11:45:09.205Z,53.85
2022-12-15T11:47:45.157Z,53.71
2022-12-15T11:50:32.162Z,53.61
2022-12-15T11:53:38.885Z,53.25
2022-12-15T11:56:16.280Z,53.69
2022-12-15T11:59:04.925Z,53.73
2022-12-15T12:01:58.871Z,53.49
2022-12-15T12:04:39.270Z,53.71
2022-12-15T12:07:15.654Z,53.62
2022-12-15T12:09:52.788Z,53.09
2022-12-15T12:12:27.317Z,53.06
2022-12-15T12:15:15.830Z,53.45
2022-12-15T12:17:47.630Z,53.75
2022-12-15T12:20:19.896Z,53.92
2022-12-15T12:22:58.947Z,53.48
2022-12-15T12:25:28.111Z,53.49
2022-12-15T12:28:00.051Z,53.98
2022-12-15T12:30:34.741Z,53.76
2022-12-15T12:33:10.961Z,53.60
2022-12-15T12:35:45.947Z,53.73
2022-12-15T12:38:15.161Z,54.01
2022-12-15T12:40:55.180Z,53.50
2022-12-15T12:43:33.593Z,53.78
2022-12-15T12:46:10.783Z,53.44
2022-12-15T12:48:45.121Z,53.49
2022-12-15T12:51:26.962Z,53.05
2022-12-15T12:53:56.434Z,53.63
2022-12-15T12:56:35.116Z,53.14
2022-12-15T12:59:08.966Z,53.24
2022-12-15T13:01:39.410Z,52.88
2022-12-15T13:04:13.570Z,53.34
2022-12-15T13:07:05.812Z,52.97
2022-12-15T13:09:42.532Z,53.40
2022-12-15T13:12:52.610Z,53.23
2022-12-15T13:15:37.445Z,53.24
2022-12-15T13:18:16.460Z,53.58
2022-12-15T13:20:50.571Z,53.21
2022-12-15T13:23:41.951Z,53.53
2022-12-15T13:26:15.010Z,53.59
2022-12-15T13:28:51.679Z,53.23
2022-12-15T13:31:31.793Z,53.27
2022-12-15T13:34:13.104Z,53.41
2022-12-15T13:36:55.963Z,53.15
2022-12-15T13:39:51.951Z,53.26
2022-12-15T13:42:40.252Z,53.02
2022-12-15T13:45:51.476Z,52.35
2022-12-15T13:48:28.013Z,53.21
2022-12-15T13:51:04.549Z,53.19
2022-12-15T13:53:44.818Z,53.15
2022-12-15T13:56:42.849Z,53.18
2022-12-15T13:59:20.945Z,52.73
2022-12-15T14:01:55.732Z,52.89
2022-12-15T14:04:24.640Z,53.02
2022-12-15T14:06:57.046Z,53.17
2022-12-15T14:09:29.994Z,53.23
2022-12-15T14:11:59.322Z,53.42
2022-12-15T14:14:31.355Z,52.94
2022-12-15T14:17:02.640Z,53.36
2022-12-15T14:19:41.942Z,53.11
2022-12-15T14:25:21.196Z,53.47
2022-12-15T14:27:50.854Z,53.75
2022-12-15T14:30:26.441Z,53.75
2022-12-15T14:32:59.607Z,53.97
2022-12-15T14:35:32.979Z,53.93
2022-12-15T14:38:06.896Z,53.61
2022-12-15T14:40:37.331Z,53.96
2022-12-15T14:43:08.675Z,54.18
2022-12-15T14:45:37.487Z,54.49
2022-12-15T14:51:01.721Z,54.06
2022-12-15T14:53:35.105Z,54.10
2022-12-15T14:56:29.659Z,53.85
2022-12-15T14:59:04.009Z,54.48
2022-12-15T15:01:35.365Z,54.41
2022-12-15T15:04:05.413Z,54.60
2022-12-15T15:06:37.509Z,54.12
2022-12-15T15:09:23.778Z,54.27
2022-12-15T15:11:54.578Z,54.40
2022-12-15T15:14:27.272Z,54.15
2022-12-15T15:17:09.772Z,54.26
2022-12-15T15:19:40.588Z,54.47
2022-12-15T15:22:37.914Z,54.72
2022-12-15T15:28:14.119Z,54.41
2022-12-15T15:30:45.222Z,54.76
2022-12-15T15:33:14.764Z,54.87
2022-12-15T15:35:45.260Z,54.75
2022-12-15T15:38:21.724Z,55.09
2022-12-15T15:40:54.940Z,54.92
2022-12-15T15:43:25.739Z,55.07
2022-12-15T15:46:00.300Z,55.33
2022-12-15T15:48:32.137Z,55.12
2022-12-15T15:51:02.125Z,55.03
2022-12-15T15:53:33.210Z,55.11
2022-12-15T15:56:03.533Z,55.17
2022-12-15T15:58:33.739Z,55.47
2022-12-15T16:01:03.826Z,55.53
2022-12-15T16:03:36.180Z,55.25
2022-12-15T16:06:05.924Z,55.56
2022-12-15T16:08:38.347Z,55.60
2022-12-15T16:11:07.558Z,55.62
2022-12-15T16:13:37.405Z,55.68
2022-12-15T16:16:06.312Z,55.55
2022-12-15T16:18:35.340Z,55.32
2022-12-15T16:21:03.913Z,55.64
2022-12-15T16:23:32.451Z,55.38
2022-12-15T16:26:01.603Z,55.75
2022-12-15T16:28:32.144Z,55.64
2022-12-15T16:31:02.696Z,55.46
2022-12-15T16:33:31.137Z,55.81
2022-12-15T16:35:59.816Z,55.67
2022-12-15T16:38:31.322Z,55.64
2022-12-15T16:41:05.803Z,55.94
2022-12-15T16:43:38.136Z,56.18
2022-12-15T16:46:14.263Z,56.21
2022-12-15T16:48:42.926Z,55.96
2022-12-15T16:51:21.429Z,56.21
2022-12-15T16:53:50.304Z,56.22
2022-12-15T16:56:18.626Z,56.18
2022-12-15T16:58:49.056Z,56.09
2022-12-15T17:01:23.228Z,55.83
2022-12-15T17:03:51.791Z,56.04
2022-12-15T17:06:20.398Z,55.92
2022-12-15T17:08:51.692Z,56.03
2022-12-15T17:11:24.889Z,56.02
2022-12-15T17:13:55.576Z,56.15
2022-12-15T17:16:29.999Z,56.07
2022-12-15T17:18:58.915Z,55.91
2022-12-15T17:21:30.363Z,56.00
2022-12-15T17:24:02.100Z,56.58
2022-12-15T17:26:34.082Z,56.44
2022-12-15T17:29:07.921Z,56.54
2022-12-15T17:31:39.094Z,56.29
2022-12-15T17:34:25.755Z,56.34
2022-12-15T17:36:54.429Z,56.05
2022-12-15T17:39:24.461Z,56.20
2022-12-15T17:42:02.339Z,56.22
2022-12-15T17:44:35.823Z,56.18
2022-12-15T17:47:08.983Z,56.18
2022-12-15T17:49:38.886Z,56.27
2022-12-15T17:52:16.853Z,56.09
2022-12-15T17:54:45.923Z,56.25
2022-12-15T17:57:15.162Z,56.20
2022-12-15T17:59:43.792Z,56.08
2022-12-15T18:02:16.281Z,55.93
2022-12-15T18:04:45.552Z,55.94
2022-12-15T18:07:18.699Z,55.90
2022-12-15T18:09:47.795Z,55.89
2022-12-15T18:12:25.692Z,56.16
2022-12-15T18:14:54.920Z,56.01
2022-12-15T18:17:25.476Z,56.40
2022-12-15T18:19:54.102Z,56.18
2022-12-15T18:22:25.615Z,56.24
2022-12-15T18:24:55.747Z,56.44
2022-12-15T18:27:25.489Z,56.24
2022-12-15T18:29:53.970Z,56.39
2022-12-15T18:32:26.193Z,56.18
2022-12-15T18:34:55.205Z,56.26
2022-12-15T18:37:25.963Z,56.21
2022-12-15T18:39:57.139Z,56.34
2022-12-15T18:42:29.820Z,56.30
2022-12-15T18:45:00.630Z,55.95
2022-12-15T18:47:30.764Z,55.97
2022-12-15T18:50:01.139Z,56.29
2022-12-15T18:52:34.433Z,56.18
2022-12-15T18:55:03.768Z,56.54
2022-12-15T18:57:36.146Z,56.33
2022-12-15T19:00:18.648Z,56.29
2022-12-15T19:02:50.256Z,56.45
2022-12-15T19:05:33.029Z,56.58
2022-12-15T19:08:05.301Z,56.64
2022-12-15T19:10:36.163Z,56.41
2022-12-15T19:13:04.668Z,57.18
2022-12-15T19:15:33.258Z,57.03
2022-12-15T19:18:20.761Z,56.86
2022-12-15T19:21:06.289Z,56.57
2022-12-15T19:23:35.273Z,56.57
2022-12-15T19:26:04.168Z,56.59
2022-12-15T19:28:34.218Z,56.34
2022-12-15T19:31:02.601Z,56.33
2022-12-15T19:33:34.151Z,56.43
2022-12-15T19:36:04.373Z,56.39
2022-12-15T19:38:34.333Z,56.34
2022-12-15T19:41:03.357Z,56.72
2022-12-15T19:43:32.574Z,56.29
2022-12-15T19:46:01.926Z,56.46
2022-12-15T19:48:32.039Z,56.36
2022-12-15T19:51:01.284Z,56.23
2022-12-15T19:53:31.552Z,56.70
2022-12-15T19:56:02.639Z,56.57
2022-12-15T19:58:33.060Z,56.43
2022-12-15T20:01:06.868Z,56.48
2022-12-15T20:03:37.975Z,56.50
2022-12-15T20:06:15.403Z,56.86
2022-12-15T20:08:45.905Z,56.69
2022-12-15T20:11:19.807Z,56.67
2022-12-15T20:13:50.558Z,56.78
2022-12-15T20:16:20.568Z,56.74
2022-12-15T20:18:53.386Z,57.01
2022-12-15T20:21:23.526Z,56.68
2022-12-15T20:23:55.946Z,56.76
2022-12-15T20:26:26.495Z,56.52
2022-12-15T20:28:55.150Z,56.83
2022-12-15T20:31:26.266Z,56.54
2022-12-15T20:33:56.379Z,56.71
2022-12-15T20:36:27.897Z,56.67
2022-12-15T20:38:56.795Z,56.73
2022-12-15T20:41:26.885Z,56.91
2022-12-15T20:43:56.698Z,56.98
2022-12-15T20:46:26.665Z,56.88
2022-12-15T20:48:57.139Z,57.36
2022-12-15T20:51:27.167Z,57.56
2022-12-15T20:53:59.391Z,57.42
2022-12-15T20:56:29.000Z,57.51
2022-12-15T20:58:59.319Z,57.14
2022-12-15T21:01:31.900Z,57.48
2022-12-15T21:04:03.797Z,57.29
2022-12-15T21:06:33.064Z,57.27
2022-12-15T21:09:01.505Z,57.08
2022-12-15T21:11:33.999Z,57.05
2022-12-15T21:14:04.645Z,56.91
2022-12-15T21:16:33.954Z,56.79
2022-12-15T21:19:19.846Z,56.72
2022-12-15T21:21:55.511Z,56.68
2022-12-15T21:24:26.557Z,56.95
2022-12-15T21:26:55.314Z,57.29
2022-12-15T21:29:25.470Z,57.18
2022-12-15T21:31:53.825Z,57.26
2022-12-15T21:34:23.654Z,57.37
2022-12-15T21:36:55.525Z,57.71
2022-12-15T21:39:29.624Z,57.67
2022-12-15T21:42:00.636Z,57.75
2022-12-15T21:44:29.165Z,57.80
2022-12-15T21:46:57.443Z,57.64
2022-12-15T21:49:26.537Z,57.55
2022-12-15T21:51:58.082Z,57.32
2022-12-15T21:54:31.190Z,57.35
2022-12-15T21:56:59.985Z,57.55
2022-12-15T21:59:30.847Z,57.44
2022-12-15T22:02:00.991Z,57.73
2022-12-15T22:04:32.780Z,57.46
2022-12-15T22:07:01.744Z,57.53
2022-12-15T22:09:30.496Z,57.77
2022-12-15T22:11:59.141Z,57.86
2022-12-15T22:14:29.611Z,57.70
2022-12-15T22:16:58.477Z,57.64
2022-12-15T22:19:27.146Z,57.82
2022-12-15T22:21:57.103Z,57.44
2022-12-15T22:24:25.525Z,57.60
2022-12-15T22:26:53.955Z,57.30
2022-12-15T22:29:25.065Z,57.24
2022-12-15T22:31:54.908Z,57.43
2022-12-15T22:34:25.048Z,57.16
2022-12-15T22:36:53.497Z,57.63
2022-12-15T22:39:25.562Z,57.37
2022-12-15T22:41:54.100Z,57.29
2022-12-15T22:44:25.124Z,57.18
2022-12-15T22:46:55.741Z,57.34
2022-12-15T22:49:26.871Z,57.52
2022-12-15T22:51:55.570Z,57.38
2022-12-15T22:54:27.104Z,57.33
2022-12-15T22:56:59.909Z,57.30
2022-12-15T22:59:31.974Z,57.35
2022-12-15T23:02:02.629Z,57.34
2022-12-15T23:04:31.579Z,57.29
2022-12-15T23:07:01.409Z,57.19
2022-12-15T23:09:31.413Z,57.31
2022-12-15T23:11:59.382Z,57.58
2022-12-15T23:14:41.472Z,57.59
2022-12-15T23:17:09.933Z,57.44
2022-12-15T23:19:38.400Z,57.22
2022-12-15T23:22:06.742Z,57.01
2022-12-15T23:24:36.595Z,57.09
2022-12-15T23:27:06.000Z,56.90
2022-12-15T23:29:34.707Z,57.15
2022-12-15T23:32:03.471Z,57.14
2022-12-15T23:34:31.909Z,57.27
2022-12-15T23:37:00.979Z,57.34
2022-12-15T23:39:29.575Z,57.25
2022-12-15T23:41:59.460Z,57.01
2022-12-15T23:44:28.255Z,56.97
2022-12-15T23:46:57.501Z,56.90
2022-12-15T23:49:26.026Z,57.16
2022-12-15T23:51:54.437Z,57.06
2022-12-15T23:54:23.502Z,56.86
2022-12-15T23:56:51.895Z,57.29
2022-12-15T23:59:21.942Z,57.12
